Kooskia, ID (83539)

1:02 PM PDT on August 21, 2014 (GMT -0700)
Kamiah Airport | Change Station
CLOSE
Current Station
Personal Weather Station
Location: Kamiah, ID
Elevation: 1194 ft
Nearby Weather Stations

Elev 1194 ft 46.22 °N, 116.01 °W | Updated 4 seconds ago

Scattered Clouds
Scattered Clouds
87.4 °F
Feels Like 86 °F
N
0.0
Wind Variable Wind from NE
Gusts 0.0 mph

Today
High -- | Low -- °F
--% Chance of Precip.
Yesterday
High -- | Low -- °F
Precip. -- in
5:50 AM 7:42 PM
Waning Crescent, 12% visible
Pressure 30.01 in
Visibility 10.0 miles
Clouds Scattered Clouds 9000 ft
Heat Index 86 °F
Dew Point 55 °F
Humidity 33%
Rainfall 0.00 in
Snow Depth Not available.
UV 7 out of 12
Pollen 6.90 out of 12
Air Quality Not available.
Flu Activity Not available.
METAR KGIC 211955Z AUTO 02006KT 10SM SCT090 24/06 A3001 RMK AO1 T02420058

More Conditions Fewer Conditions

Pressure 30.01 in
Visibility 10.0 miles
Clouds Scattered Clouds 9000 ft
Heat Index 86 °F
Dew Point 55 °F
Humidity 33%
Rainfall 0.00 in
Snow Depth Not available.
UV 7 out of 12
Pollen 6.90 out of 12
Air Quality Not available.
Flu Activity Not available.
METAR KGIC 211955Z AUTO 02006KT 10SM SCT090 24/06 A3001 RMK AO1 T02420058

More Conditions Fewer Conditions

10-Day Weather Forecast

Almanac

Astronomy

Aug. 21, 2014 Rise Set
Actual Time 5:50 AM PDT 7:42 PM PDT
Civil Twilight 5:18 AM PDT 8:13 PM PDT
Nautical Twilight 4:38 AM PDT 8:53 PM PDT
Astronomical Twilight 3:55 AM PDT 9:35 PM PDT
Moon 2:18 AM PDT 5:18 PM PDT
Length of Visible Light 14h 55m
Length of Day
13h 51m
Tomorrow will be 3m 2s shorter.
Waning Crescent, 12% of the Moon is Illuminated
Today
Waning Crescent
Aug 25
New
Sep 2
First Quarter
Sep 8
Full
Sep 15
Last Quarter

Today's Extremes

State Highs State Lows

Community

WunderPhotos

Upload Photos

1,746,011 photos uploaded!

WunderBlogs® & News

Nearby

Snow Depth

Station Depth Elevation
Hemlock Butte 0 in 5810 ft
Sherwin 0 in 3200 ft
Savage Pass 1 in 6170 ft
Moscow Mountain 1 in 4700 ft
Mica Creek 0 in 4750 ft

Earthquake Activity

City Distance Mag. Time & Date
No recent earthquake activity has been reported nearby.
Minimum magnitude displayed is 2.5.

Coastal Water Temperatures

Place Temperature
No Stations Reporting

Nearby Weather Stations